createdAt,value
2023-02-06T00:01:34.163Z,-2.70
2023-02-06T00:04:03.347Z,-2.50
2023-02-06T00:06:33.754Z,-2.80
2023-02-06T00:09:03.603Z,-2.80
2023-02-06T00:11:32.013Z,-2.80
2023-02-06T00:14:00.376Z,-2.80
2023-02-06T00:16:30.841Z,-2.60
2023-02-06T00:19:00.609Z,-2.70
2023-02-06T00:21:29.898Z,-2.80
2023-02-06T00:24:01.707Z,-2.80
2023-02-06T00:26:31.307Z,-2.80
2023-02-06T00:28:59.757Z,-2.90
2023-02-06T00:31:28.100Z,-2.90
2023-02-06T00:33:56.273Z,-2.90
2023-02-06T00:36:24.622Z,-2.90
2023-02-06T00:38:53.230Z,-2.90
2023-02-06T00:41:23.097Z,-2.90
2023-02-06T00:43:51.431Z,-2.90
2023-02-06T00:46:19.676Z,-2.90
2023-02-06T00:48:47.978Z,-3.00
2023-02-06T00:51:16.351Z,-3.00
2023-02-06T00:53:44.707Z,-3.10
2023-02-06T00:56:12.998Z,-3.10
2023-02-06T00:58:42.811Z,-3.20
2023-02-06T01:01:11.277Z,-3.20
2023-02-06T01:03:39.599Z,-3.20
2023-02-06T01:06:08.059Z,-3.30
2023-02-06T01:08:36.591Z,-3.30
2023-02-06T01:11:11.369Z,-3.30
2023-02-06T01:13:42.580Z,-3.30
2023-02-06T01:16:11.798Z,-3.30
2023-02-06T01:18:41.179Z,-3.30
2023-02-06T01:21:11.135Z,-3.30
2023-02-06T01:23:40.762Z,-3.30
2023-02-06T01:26:09.770Z,-3.30
2023-02-06T01:28:38.225Z,-3.40
2023-02-06T01:31:13.416Z,-3.40
2023-02-06T01:33:42.127Z,-3.40
2023-02-06T01:36:11.124Z,-3.40
2023-02-06T01:38:40.098Z,-3.40
2023-02-06T01:41:09.903Z,-3.50
2023-02-06T01:43:41.094Z,-3.50
2023-02-06T01:46:09.884Z,-3.50
2023-02-06T01:48:43.773Z,-3.60
2023-02-06T01:51:16.117Z,-3.60
2023-02-06T01:53:46.754Z,-3.60
2023-02-06T01:56:19.537Z,-3.60
2023-02-06T01:58:53.009Z,-3.60
2023-02-06T02:01:22.218Z,-3.60
2023-02-06T02:03:55.989Z,-3.60
2023-02-06T02:06:26.702Z,-3.70
2023-02-06T02:08:58.423Z,-3.70
2023-02-06T02:11:32.121Z,-3.70
2023-02-06T02:14:02.387Z,-3.70
2023-02-06T02:16:41.724Z,-3.80
2023-02-06T02:19:54.281Z,-3.80
2023-02-06T02:22:47.207Z,-3.80
2023-02-06T02:25:57.931Z,-3.80
2023-02-06T02:29:07.335Z,-3.70
2023-02-06T02:32:09.846Z,-3.60
2023-02-06T02:35:10.879Z,-3.60
2023-02-06T02:37:48.333Z,-3.60
2023-02-06T02:40:23.843Z,-3.60
2023-02-06T02:43:02.546Z,-3.60
2023-02-06T02:45:39.257Z,-3.60
2023-02-06T02:48:12.046Z,-3.50
2023-02-06T02:50:42.542Z,-3.50
2023-02-06T02:53:11.706Z,-3.40
2023-02-06T02:55:39.944Z,-3.40
2023-02-06T02:58:11.948Z,-3.40
2023-02-06T03:00:45.619Z,-3.30
2023-02-06T03:03:15.672Z,-3.30
2023-02-06T03:05:57.029Z,-3.30
2023-02-06T03:08:35.779Z,-3.20
2023-02-06T03:11:13.421Z,-3.20
2023-02-06T03:13:46.816Z,-3.10
2023-02-06T03:16:19.835Z,-3.10
2023-02-06T03:18:51.840Z,-3.10
2023-02-06T03:21:23.107Z,-3.00
2023-02-06T03:23:55.799Z,-3.00
2023-02-06T03:26:27.440Z,-3.00
2023-02-06T03:28:59.954Z,-2.80
2023-02-06T03:31:33.468Z,-2.60
2023-02-06T03:34:07.480Z,-2.80
2023-02-06T03:36:37.611Z,-2.70
2023-02-06T03:39:06.114Z,-2.70
2023-02-06T03:41:38.610Z,-2.70
2023-02-06T03:44:11.032Z,-2.70
2023-02-06T03:46:42.848Z,-2.60
2023-02-06T03:49:16.081Z,-2.60
2023-02-06T03:51:48.463Z,-2.60
2023-02-06T03:54:20.613Z,-2.60
2023-02-06T03:56:54.278Z,-2.60
2023-02-06T03:59:23.096Z,-2.50
2023-02-06T04:01:55.554Z,-2.50
2023-02-06T04:04:29.287Z,-2.40
2023-02-06T04:07:01.608Z,-2.40
2023-02-06T04:09:30.039Z,-2.40
2023-02-06T04:11:58.313Z,-2.40
2023-02-06T04:14:26.841Z,-2.40
2023-02-06T04:16:55.821Z,-2.40
2023-02-06T04:19:24.174Z,-2.30
2023-02-06T04:21:52.572Z,-2.30
2023-02-06T04:24:22.380Z,-2.40
2023-02-06T04:26:50.801Z,-2.40
2023-02-06T04:29:19.363Z,-2.30
2023-02-06T04:31:47.852Z,-2.30
2023-02-06T04:34:16.228Z,-2.20
2023-02-06T04:36:44.682Z,-2.20
2023-02-06T04:39:13.334Z,-2.20
2023-02-06T04:41:43.080Z,-2.10
2023-02-06T04:44:11.679Z,-2.10
2023-02-06T04:46:39.997Z,-2.10
2023-02-06T04:49:08.327Z,-2.30
2023-02-06T04:51:36.639Z,-2.20
2023-02-06T04:54:05.743Z,-2.20
2023-02-06T04:56:35.041Z,-2.30
2023-02-06T04:59:04.825Z,-3.20
2023-02-06T05:01:33.372Z,-2.30
2023-02-06T05:04:01.406Z,-2.30
2023-02-06T05:06:29.759Z,-2.30
2023-02-06T05:08:57.884Z,-2.40
2023-02-06T05:11:26.171Z,-2.40
2023-02-06T05:13:54.373Z,-2.40
2023-02-06T05:16:23.793Z,-2.30
2023-02-06T05:18:55.041Z,-2.30
2023-02-06T05:21:24.499Z,-2.20
2023-02-06T05:23:52.900Z,-2.20
2023-02-06T05:26:21.487Z,-2.20
2023-02-06T05:28:49.653Z,-2.20
2023-02-06T05:31:19.994Z,-2.10
2023-02-06T05:33:52.598Z,-2.10
2023-02-06T05:36:21.514Z,-2.10
2023-02-06T05:38:50.428Z,-2.10
2023-02-06T05:41:19.032Z,-2.10
2023-02-06T05:43:47.322Z,-2.00
2023-02-06T05:46:15.727Z,-2.00
2023-02-06T05:48:43.821Z,-2.00
2023-02-06T05:51:13.579Z,-2.00
2023-02-06T05:53:41.895Z,-1.90
2023-02-06T05:56:10.335Z,-1.90
2023-02-06T05:58:38.382Z,-2.00
2023-02-06T06:01:06.517Z,-2.00
2023-02-06T06:03:34.605Z,-2.00
2023-02-06T06:06:02.764Z,-2.10
2023-02-06T06:08:32.216Z,-2.10
2023-02-06T06:11:02.094Z,-2.10
2023-02-06T06:13:30.291Z,-2.00
2023-02-06T06:15:58.511Z,-1.90
2023-02-06T06:18:27.586Z,-1.90
2023-02-06T06:20:55.599Z,-1.90
2023-02-06T06:23:23.699Z,-1.80
2023-02-06T06:25:53.144Z,-1.90
2023-02-06T06:28:21.271Z,-1.90
2023-02-06T06:30:49.356Z,-1.90
2023-02-06T06:33:17.855Z,-1.90
2023-02-06T06:35:45.979Z,-1.80
2023-02-06T06:38:14.031Z,-1.80
2023-02-06T06:40:42.738Z,-1.70
2023-02-06T06:43:12.335Z,-1.80
2023-02-06T06:45:40.486Z,-1.70
2023-02-06T06:48:08.602Z,-1.70
2023-02-06T06:50:36.761Z,-1.70
2023-02-06T06:53:05.240Z,-1.70
2023-02-06T06:55:33.391Z,-1.70
2023-02-06T06:58:01.613Z,-1.80
2023-02-06T07:00:31.125Z,-1.70
2023-02-06T07:02:59.484Z,-1.70
2023-02-06T07:05:27.707Z,-1.70
2023-02-06T07:07:55.788Z,-1.60
2023-02-06T07:10:24.046Z,-1.60
2023-02-06T07:12:53.551Z,-1.50
2023-02-06T07:15:22.404Z,-1.50
2023-02-06T07:17:51.908Z,-1.60
2023-02-06T07:20:20.153Z,-1.60
2023-02-06T07:22:50.270Z,-1.60
2023-02-06T07:25:20.293Z,-1.50
2023-02-06T07:27:48.900Z,-1.50
2023-02-06T07:30:17.204Z,-1.50
2023-02-06T07:32:45.442Z,-1.50
2023-02-06T07:35:15.967Z,-1.40
2023-02-06T07:37:44.092Z,-1.40
2023-02-06T07:40:13.592Z,-1.30
2023-02-06T07:42:41.765Z,-1.30
2023-02-06T07:45:10.698Z,-1.30
2023-02-06T07:47:38.889Z,-1.30
2023-02-06T07:50:08.007Z,-1.20
2023-02-06T07:52:37.702Z,-1.10
2023-02-06T07:55:06.510Z,-1.10
2023-02-06T07:57:34.570Z,-1.00
2023-02-06T08:00:02.750Z,-0.90
2023-02-06T08:02:30.880Z,-0.90
2023-02-06T08:04:59.092Z,-0.90
2023-02-06T08:07:27.264Z,-0.90
2023-02-06T08:09:56.806Z,-0.80
2023-02-06T08:12:25.035Z,-0.60
2023-02-06T08:14:53.250Z,-0.60
2023-02-06T08:17:21.360Z,-0.70
2023-02-06T08:19:50.171Z,-0.60
2023-02-06T08:22:18.301Z,-0.60
2023-02-06T08:24:46.830Z,-0.60
2023-02-06T08:27:16.348Z,-0.60
2023-02-06T08:29:44.608Z,-0.60
2023-02-06T08:32:13.080Z,-0.60
2023-02-06T08:34:41.625Z,-0.60
2023-02-06T08:37:09.850Z,-0.60
2023-02-06T08:39:38.860Z,-0.70
2023-02-06T08:42:07.201Z,-0.70
2023-02-06T08:44:36.990Z,-0.70
2023-02-06T08:47:10.414Z,-0.70
2023-02-06T08:49:39.249Z,-0.70
2023-02-06T08:52:07.518Z,-0.70
2023-02-06T08:54:38.407Z,-0.70
2023-02-06T08:57:07.374Z,-0.60
2023-02-06T08:59:37.201Z,-0.50
2023-02-06T09:02:08.279Z,-0.40
2023-02-06T09:04:37.824Z,-0.30
2023-02-06T09:07:06.104Z,-0.20
2023-02-06T09:09:34.266Z,0.00
2023-02-06T09:12:03.963Z,-0.20
2023-02-06T09:14:32.856Z,-0.20
2023-02-06T09:17:02.971Z,-0.10
2023-02-06T09:19:31.307Z,0.00
2023-02-06T09:21:59.601Z,-0.10
2023-02-06T09:24:30.175Z,0.00
2023-02-06T09:27:00.302Z,0.10
2023-02-06T09:29:31.801Z,0.10
2023-02-06T09:32:01.956Z,0.20
2023-02-06T09:34:30.409Z,0.10
2023-02-06T09:36:58.647Z,0.00
2023-02-06T09:39:27.209Z,0.00
2023-02-06T09:41:58.707Z,0.00
2023-02-06T09:44:31.705Z,0.00
2023-02-06T09:47:07.355Z,0.00
2023-02-06T09:49:40.538Z,0.00
2023-02-06T09:52:30.544Z,0.00
2023-02-06T09:55:04.327Z,0.10
2023-02-06T09:57:40.005Z,-0.10
2023-02-06T10:00:16.741Z,-0.10
2023-02-06T10:03:13.918Z,0.10
2023-02-06T10:05:53.590Z,0.00
2023-02-06T10:08:25.410Z,0.00
2023-02-06T10:10:57.095Z,0.10
2023-02-06T10:13:30.084Z,0.40
2023-02-06T10:16:02.543Z,0.20
2023-02-06T10:18:37.178Z,0.20
2023-02-06T10:21:13.136Z,0.20
2023-02-06T10:23:47.604Z,0.20
2023-02-06T10:26:18.326Z,0.10
2023-02-06T10:28:50.189Z,0.20
2023-02-06T10:31:44.934Z,0.20
2023-02-06T10:34:42.585Z,0.30
2023-02-06T10:37:21.533Z,0.30
2023-02-06T10:40:30.783Z,0.40
2023-02-06T10:43:04.331Z,0.40
2023-02-06T10:45:43.411Z,0.60
2023-02-06T10:48:18.875Z,0.60
2023-02-06T10:50:51.956Z,0.60
2023-02-06T10:53:24.091Z,0.60
2023-02-06T10:55:56.534Z,0.70
2023-02-06T10:58:29.985Z,0.70
2023-02-06T11:01:00.491Z,0.60
2023-02-06T11:03:32.573Z,0.60
2023-02-06T11:06:03.894Z,0.50
2023-02-06T11:08:34.605Z,0.50
2023-02-06T11:11:18.925Z,0.50
2023-02-06T11:13:49.945Z,0.50
2023-02-06T11:16:24.286Z,0.70
2023-02-06T11:18:53.432Z,0.70
2023-02-06T11:21:50.945Z,0.70
2023-02-06T11:24:21.012Z,0.80
2023-02-06T11:26:52.684Z,0.70
2023-02-06T11:29:22.953Z,0.60
2023-02-06T11:31:54.504Z,0.60
2023-02-06T11:34:27.420Z,0.70
2023-02-06T11:36:59.235Z,0.70
2023-02-06T11:39:31.365Z,0.60
2023-02-06T11:42:01.652Z,0.60
2023-02-06T11:44:35.773Z,0.60
2023-02-06T11:47:22.777Z,0.50
2023-02-06T11:49:51.818Z,0.50
2023-02-06T11:52:31.262Z,0.50
2023-02-06T11:55:02.565Z,0.50
2023-02-06T11:57:33.492Z,0.50
2023-02-06T12:00:05.619Z,0.50
2023-02-06T12:02:35.652Z,0.50
2023-02-06T12:05:08.225Z,0.30
2023-02-06T12:07:40.644Z,0.30
2023-02-06T12:10:15.832Z,0.30
2023-02-06T12:12:49.418Z,0.30
2023-02-06T12:15:45.843Z,0.30
2023-02-06T12:18:15.388Z,0.30
2023-02-06T12:20:50.944Z,0.70
2023-02-06T12:23:25.474Z,0.50
2023-02-06T12:25:57.375Z,0.60
2023-02-06T12:28:30.134Z,0.60
2023-02-06T12:31:04.630Z,0.60
2023-02-06T12:33:38.564Z,0.60
2023-02-06T12:36:12.421Z,0.60
2023-02-06T12:38:53.804Z,0.50
2023-02-06T12:41:39.863Z,0.50
2023-02-06T12:44:19.349Z,0.50
2023-02-06T12:46:52.638Z,0.50
2023-02-06T12:49:27.502Z,0.40
2023-02-06T12:51:59.339Z,0.30
2023-02-06T12:54:31.371Z,0.20
2023-02-06T12:57:05.303Z,0.00
2023-02-06T12:59:57.612Z,0.00
2023-02-06T13:03:05.389Z,0.00
2023-02-06T13:05:37.905Z,0.10
2023-02-06T13:08:10.630Z,0.30
2023-02-06T13:10:41.456Z,0.40
2023-02-06T13:13:27.172Z,0.50
2023-02-06T13:15:57.651Z,0.50
2023-02-06T13:18:52.649Z,0.50
2023-02-06T13:21:24.220Z,0.80
2023-02-06T13:24:15.669Z,0.50
2023-02-06T13:27:10.624Z,0.50
2023-02-06T13:29:42.453Z,0.50
2023-02-06T13:32:43.265Z,0.50
2023-02-06T13:35:28.096Z,0.50
2023-02-06T13:38:27.965Z,0.50
2023-02-06T13:41:28.063Z,0.60
2023-02-06T13:44:00.445Z,0.60
2023-02-06T13:46:46.056Z,0.60
2023-02-06T13:49:42.988Z,0.50
2023-02-06T13:52:19.724Z,0.40
2023-02-06T13:55:06.440Z,0.50
2023-02-06T13:57:44.667Z,0.40
2023-02-06T14:00:19.610Z,0.40
2023-02-06T14:02:49.810Z,0.50
2023-02-06T14:05:21.877Z,0.50
2023-02-06T14:08:09.516Z,0.00
2023-02-06T14:10:56.923Z,0.50
2023-02-06T14:13:42.245Z,0.50
2023-02-06T14:16:25.386Z,0.50
2023-02-06T14:18:59.640Z,0.50
2023-02-06T14:21:38.756Z,0.40
2023-02-06T14:24:27.675Z,0.40
2023-02-06T14:27:15.802Z,0.40
2023-02-06T14:29:52.342Z,0.40
2023-02-06T14:32:38.924Z,0.50
2023-02-06T14:35:42.723Z,0.50
2023-02-06T14:38:39.308Z,0.50
2023-02-06T14:41:07.852Z,0.40
2023-02-06T14:43:41.599Z,0.40
2023-02-06T14:46:13.467Z,0.40
2023-02-06T14:48:47.710Z,0.80
2023-02-06T14:51:26.195Z,0.30
2023-02-06T14:53:57.087Z,0.20
2023-02-06T14:56:31.509Z,0.20
2023-02-06T14:59:15.214Z,0.20
2023-02-06T15:01:45.726Z,0.30
2023-02-06T15:04:17.010Z,0.40
2023-02-06T15:06:51.729Z,0.40
2023-02-06T15:09:31.457Z,0.30
2023-02-06T15:12:01.624Z,0.30
2023-02-06T15:14:32.160Z,0.20
2023-02-06T15:17:00.982Z,0.10
2023-02-06T15:19:32.761Z,0.20
2023-02-06T15:22:03.187Z,0.00
2023-02-06T15:24:44.349Z,-0.10
2023-02-06T15:27:22.413Z,-0.20
2023-02-06T15:29:51.458Z,-0.30
2023-02-06T15:32:27.330Z,-0.30
2023-02-06T15:34:57.450Z,-0.40
2023-02-06T15:37:29.385Z,-0.50
2023-02-06T15:40:02.490Z,-0.40
2023-02-06T15:42:30.771Z,-0.50
2023-02-06T15:44:59.443Z,-0.60
2023-02-06T15:47:27.611Z,-0.70
2023-02-06T15:50:00.466Z,-0.70
2023-02-06T15:52:38.257Z,-0.70
2023-02-06T15:55:07.251Z,-0.80
2023-02-06T15:57:39.488Z,-0.90
2023-02-06T16:00:23.350Z,-1.00
2023-02-06T16:02:53.007Z,-0.90
2023-02-06T16:05:27.282Z,-0.90
2023-02-06T16:07:56.301Z,-1.00
2023-02-06T16:10:26.846Z,-1.00
2023-02-06T16:12:57.392Z,-1.00
2023-02-06T16:15:29.631Z,-1.00
2023-02-06T16:18:00.039Z,-1.00
2023-02-06T16:20:36.979Z,-1.00
2023-02-06T16:23:30.765Z,-1.10
2023-02-06T16:26:07.422Z,-1.10
2023-02-06T16:28:43.107Z,-1.10
2023-02-06T16:31:14.008Z,-1.10
2023-02-06T16:33:44.796Z,-1.10
2023-02-06T16:36:17.220Z,-0.30
2023-02-06T16:38:54.125Z,-1.00
2023-02-06T16:41:33.904Z,-1.10
2023-02-06T16:44:03.657Z,-1.10
2023-02-06T16:46:32.060Z,-1.10
2023-02-06T16:49:01.184Z,-1.10
2023-02-06T16:51:33.157Z,-1.20
2023-02-06T16:54:01.542Z,-1.20
2023-02-06T16:56:29.928Z,-1.20
2023-02-06T16:58:58.369Z,-1.20
2023-02-06T17:01:29.645Z,-1.20
2023-02-06T17:03:57.980Z,-1.10
2023-02-06T17:06:28.401Z,-1.00
2023-02-06T17:09:03.265Z,-1.00
2023-02-06T17:11:31.640Z,-1.00
2023-02-06T17:13:59.926Z,-1.10
2023-02-06T17:16:29.538Z,-1.10
2023-02-06T17:18:57.756Z,-1.10
2023-02-06T17:21:28.282Z,-1.20
2023-02-06T17:23:57.751Z,-1.20
2023-02-06T17:26:26.073Z,-1.30
2023-02-06T17:28:54.559Z,-1.40
2023-02-06T17:31:22.952Z,-1.40
2023-02-06T17:33:51.227Z,-1.40
2023-02-06T17:36:22.383Z,-1.40
2023-02-06T17:38:50.541Z,-1.40
2023-02-06T17:41:19.904Z,-1.40
2023-02-06T17:43:47.947Z,-1.50
2023-02-06T17:46:16.036Z,-1.20
2023-02-06T17:48:44.608Z,-1.60
2023-02-06T17:51:12.889Z,-1.60
2023-02-06T17:53:40.976Z,-1.50
2023-02-06T17:56:12.685Z,-1.60
2023-02-06T17:58:43.315Z,-1.60
2023-02-06T18:01:12.837Z,-1.60
2023-02-06T18:03:41.103Z,-1.60
2023-02-06T18:06:10.580Z,-1.70
2023-02-06T18:08:39.351Z,-1.70
2023-02-06T18:11:11.756Z,-1.80
2023-02-06T18:13:42.530Z,-1.80
2023-02-06T18:16:15.686Z,-1.80
2023-02-06T18:18:43.875Z,-1.80
2023-02-06T18:21:12.413Z,-1.80
2023-02-06T18:23:40.626Z,-1.80
2023-02-06T18:26:10.637Z,-1.90
2023-02-06T18:28:41.082Z,-1.90
2023-02-06T18:31:22.961Z,-1.80
2023-02-06T18:33:51.252Z,-1.80
2023-02-06T18:36:19.837Z,-2.00
2023-02-06T18:38:48.060Z,-1.90
2023-02-06T18:41:34.010Z,-2.00
2023-02-06T18:44:04.545Z,-1.90
2023-02-06T18:46:32.679Z,-2.00
2023-02-06T18:49:01.452Z,-2.00
2023-02-06T18:51:30.678Z,-1.80
2023-02-06T18:53:59.411Z,-2.00
2023-02-06T18:56:27.625Z,-2.10
2023-02-06T18:58:56.341Z,-2.10
2023-02-06T19:01:26.530Z,-2.10
2023-02-06T19:03:55.090Z,-2.20
2023-02-06T19:06:25.091Z,-2.10
2023-02-06T19:08:53.142Z,-2.20
2023-02-06T19:11:21.210Z,-2.10
2023-02-06T19:13:49.610Z,-1.90
2023-02-06T19:16:19.764Z,-2.20
2023-02-06T19:18:50.268Z,-2.20
2023-02-06T19:21:20.326Z,-2.20
2023-02-06T19:23:54.842Z,-2.20
2023-02-06T19:26:23.498Z,-2.20
2023-02-06T19:28:52.094Z,-2.20
2023-02-06T19:31:23.897Z,-2.20
2023-02-06T19:33:55.279Z,-2.20
2023-02-06T19:36:25.237Z,-2.20
2023-02-06T19:38:56.774Z,-2.20
2023-02-06T19:41:26.514Z,-2.10
2023-02-06T19:43:56.407Z,-2.10
2023-02-06T19:46:26.310Z,-2.10
2023-02-06T19:48:56.334Z,-2.10
2023-02-06T19:51:26.448Z,-2.10
2023-02-06T19:53:56.795Z,-2.00
2023-02-06T19:56:26.981Z,-2.00
2023-02-06T19:58:56.015Z,-2.10
2023-02-06T20:01:25.284Z,-2.00
2023-02-06T20:03:56.094Z,-2.00
2023-02-06T20:06:24.459Z,-2.10
2023-02-06T20:08:52.536Z,-2.10
2023-02-06T20:11:22.888Z,-2.10
2023-02-06T20:13:53.990Z,-2.20
2023-02-06T20:16:24.274Z,-2.10
2023-02-06T20:18:52.627Z,-2.10
2023-02-06T20:21:26.741Z,-2.20
2023-02-06T20:23:56.426Z,-2.10
2023-02-06T20:26:26.706Z,-2.20
2023-02-06T20:28:55.677Z,-2.20
2023-02-06T20:31:23.849Z,-2.20
2023-02-06T20:33:52.605Z,-2.20
2023-02-06T20:36:24.147Z,-2.30
2023-02-06T20:38:53.728Z,-2.30
2023-02-06T20:41:26.247Z,-2.30
2023-02-06T20:43:56.590Z,-2.30
2023-02-06T20:46:25.231Z,-2.20
2023-02-06T20:48:56.686Z,-2.20
2023-02-06T20:51:27.186Z,-2.30
2023-02-06T20:53:55.753Z,-2.20
2023-02-06T20:56:24.765Z,-2.20
2023-02-06T20:58:53.189Z,-2.10
2023-02-06T21:01:23.165Z,-2.10
2023-02-06T21:03:52.577Z,-2.10
2023-02-06T21:06:20.917Z,-2.10
2023-02-06T21:08:56.478Z,-2.10
2023-02-06T21:11:29.273Z,-2.20
2023-02-06T21:13:58.740Z,-2.20
2023-02-06T21:16:27.555Z,-2.30
2023-02-06T21:18:55.997Z,-2.20
2023-02-06T21:21:25.519Z,-2.20
2023-02-06T21:23:56.631Z,-2.30
2023-02-06T21:26:25.035Z,-2.30
2023-02-06T21:28:54.052Z,-2.30
2023-02-06T21:31:25.157Z,-2.30
2023-02-06T21:33:53.913Z,-2.30
2023-02-06T21:36:23.024Z,-2.30
2023-02-06T21:38:51.500Z,-2.30
2023-02-06T21:41:22.522Z,-2.20
2023-02-06T21:43:50.855Z,-2.20
2023-02-06T21:46:19.307Z,-2.20
2023-02-06T21:48:53.371Z,-2.20
2023-02-06T21:51:23.271Z,-2.20
2023-02-06T21:53:51.690Z,-2.30
2023-02-06T21:56:23.625Z,-2.40
2023-02-06T21:58:52.386Z,-2.40
2023-02-06T22:01:22.825Z,-2.40
2023-02-06T22:03:52.054Z,-2.40
2023-02-06T22:06:20.986Z,-2.40
2023-02-06T22:08:51.914Z,-2.30
2023-02-06T22:11:24.032Z,-2.30
2023-02-06T22:13:54.509Z,-2.30
2023-02-06T22:16:24.846Z,-2.30
2023-02-06T22:18:53.238Z,-2.40
2023-02-06T22:21:23.698Z,-2.40
2023-02-06T22:23:53.004Z,-2.50
2023-02-06T22:26:22.851Z,-2.50
2023-02-06T22:28:51.067Z,-2.50
2023-02-06T22:31:21.094Z,-2.40
2023-02-06T22:33:49.840Z,-2.50
2023-02-06T22:36:20.283Z,-2.60
2023-02-06T22:38:49.587Z,-2.60
2023-02-06T22:41:18.650Z,-2.60
2023-02-06T22:43:50.662Z,-2.60
2023-02-06T22:46:21.194Z,-2.50
2023-02-06T22:48:49.581Z,-2.50
2023-02-06T22:51:18.016Z,-2.50
2023-02-06T22:53:45.377Z,-2.50
2023-02-06T22:56:32.830Z,-2.60
2023-02-06T22:59:05.086Z,-2.60
2023-02-06T23:01:35.459Z,-2.70
2023-02-06T23:04:04.914Z,-2.70
2023-02-06T23:06:34.457Z,-2.80
2023-02-06T23:09:04.238Z,-2.90
2023-02-06T23:11:32.917Z,-2.80
2023-02-06T23:14:05.336Z,-2.90
2023-02-06T23:16:34.869Z,-2.90
2023-02-06T23:19:05.437Z,-2.80
2023-02-06T23:21:36.879Z,-2.80
2023-02-06T23:24:06.201Z,-1.70
2023-02-06T23:26:35.395Z,-2.90
2023-02-06T23:29:07.423Z,-2.90
2023-02-06T23:31:36.623Z,-3.00
2023-02-06T23:34:05.119Z,-3.00
2023-02-06T23:36:33.753Z,-3.10
2023-02-06T23:39:03.661Z,-3.10
2023-02-06T23:41:32.137Z,-3.20
2023-02-06T23:44:02.129Z,-3.20
2023-02-06T23:46:35.231Z,-3.30
2023-02-06T23:49:03.634Z,-3.30
2023-02-06T23:51:32.977Z,-3.30
2023-02-06T23:54:01.574Z,-3.30
2023-02-06T23:56:32.144Z,-3.30
2023-02-06T23:59:01.719Z,-3.40
